Terminal Aerodrome Forecast
Issued by NWS

Home | Current Version | Previous Version | Text Only | Print | Product List | Glossary On
Versions: 1 2 3 4 5 6 7 8 9 10 11 12 13 14
808
FTUS46 KEKA 022339
TAFUKI
TAF
KUKI 022339Z 0300/0324 15010G17KT P6SM SKC
     FM030200 19006KT P6SM BKN250
     FM030800 16003KT P6SM SCT005 BKN012
     FM031700 14007KT P6SM BKN080=

USA.gov is the U.S. government's official web portal to all federal, state and local government web resources and services.